Marcellus, MI

10:18 PM EDT on May 06, 2015 (GMT -0400)
Farming/Agriculture | | Change Station
CLOSE
Current Station
Personal Weather Station
Location: Decatur, MI
Elevation: 864 ft
Nearby Weather Stations

Elev 864 ft 42.05 °N, 85.91 °W | Updated 58 seconds ago

Clear
Clear
68.4 °F
Feels Like 68.4 °F
N
4.0
Wind Variable Wind from SE
Gusts 7.8 mph

Today
High -- | Low -- °F
--% Chance of Precip.
Yesterday
High -- | Low -- °F
Precip. -- in
6:33 AM 8:47 PM
Waning Gibbous, 91% visible
Pressure 30.14 in
Visibility 5.0 miles
Clouds Clear
Dew Point 59 °F
Humidity 73%
Rainfall 0.00 in
Snow Depth Not available.
UV 0 out of 12
Pollen 8.20 out of 12
Air Quality Not available.
Flu Activity Regional
METAR KHAI 070215Z AUTO 12008KT 5SM HZ CLR 20/16 A3014 RMK AO2 T02010160

More Conditions Fewer Conditions

Pressure 30.14 in
Visibility 5.0 miles
Clouds Clear
Dew Point 59 °F
Humidity 73%
Rainfall 0.00 in
Snow Depth Not available.
UV 0 out of 12
Pollen 8.20 out of 12
Air Quality Not available.
Flu Activity Regional
METAR KHAI 070215Z AUTO 12008KT 5SM HZ CLR 20/16 A3014 RMK AO2 T02010160

More Conditions Fewer Conditions

10-Day Weather Forecast

Almanac

Astronomy

May. 06, 2015 Rise Set
Actual Time
Civil Twilight
Nautical Twilight
Astronomical Twilight
Moon
Length of Visible Light
Length of Day
Tomorrow will be .
, % of the Moon is Illuminated

Today's Extremes

State Highs State Lows

Community

WunderPhotos

Upload Photos

1,819,077 photos uploaded!

WunderBlogs® & News

Nearby

Air Quality

  Air Quality AQ Index Pollutant
Not available.

Snow Depth

Station Depth Elevation

Earthquake Activity

City Distance Mag. Time & Date
Minimum magnitude displayed is 2.5.

Coastal Water Temperatures

Place Temperature

Stations

Nearby Weather Stations

Station Location Temp. Windchill Dew Point Humidity Wind Precip. Elev Updated Type